ID Time Temp Humidity Light PM2.5 PM10 Voltage Extra Firmware Position Fcnt TTN version Gateways Distance RSSI LSNR Radiosettings
2026-05-09 07:28:33 7.25°C 14.1875% 3.42V v5 52.0811 / 5.03275 105 ttn.v3 3.466km -130 -14.25 867.1MHz, SF9BW125, 4/5CR
2026-05-09 06:24:31 5.4375°C 83.5% 3.42V v5 52.0811 / 5.03275 101 ttn.v3 3.466km -129 -13.75 867.7MHz, SF9BW125, 4/5CR
2026-05-09 04:48:34 6.3125°C 84.875% 3.42V v5 52.0813 / 5.0325 95 ttn.v3 3.491km -131 -14.5 867.1MHz, SF9BW125, 4/5CR
2026-05-09 04:16:33 6.375°C 106.812% 3.42V v5 52.0813 / 5.0325 93 ttn.v3 3.491km -131 -14.5 867.9MHz, SF9BW125, 4/5CR
2026-05-09 01:04:24 8.75°C 0.5% 3.42V v5 52.0813 / 5.0325 81 ttn.v3 3.491km -129 -12.75 867.7MHz, SF9BW125, 4/5CR
2026-05-08 23:28:20 7.6875°C -0.25% 3.42V v5 52.0813 / 5.0325 75 ttn.v3 3.491km -131 -15 867.1MHz, SF9BW125, 4/5CR
2026-05-08 22:56:18 8.375°C -4.5% 3.42V v5 52.0813 / 5.0325 73 ttn.v3 3.491km -130 -14 867.9MHz, SF9BW125, 4/5CR
2026-05-08 22:24:16 9.25°C 104.438% 3.42V v5 52.0813 / 5.0325 71 ttn.v3 3.491km -129 -14 867.7MHz, SF9BW125, 4/5CR
2026-05-08 20:16:02 14.0625°C 67.6875% 3.42V v5 52.0813 / 5.0325 63 ttn.v3 3.491km -131 -15.25 867.9MHz, SF9BW125, 4/5CR
2026-05-08 15:27:05 18°C 59% 3.42V v5 52.0813 / 5.0325 45 ttn.v3 3.491km -131 -14.25 867.1MHz, SF9BW125, 4/5CR
2026-05-08 10:05:42 13.5625°C -5.75% 3.42V v5 52.0813 / 5.0325 25 ttn.v3 3.491km -130 -14.25 867.1MHz, SF9BW125, 4/5CR
2026-05-08 07:25:27 9.5°C 57.5% 3.42V v5 52.0813 / 5.0325 15 ttn.v3 3.491km -130 -15 867.1MHz, SF9BW125, 4/5CR
2026-05-08 03:26:25 10.625°C -0.9375% 3.42V v5 52.0813 / 5.0325 0 ttn.v3 3.491km -130 -14.5 867.7MHz, SF12BW125, 4/5CR
2025-10-28 05:05:44 9.1875°C 117.625% 3.41V v5 52.0812 / 5.03275 25908 ttn.v3 0.669km -130 -13.75 867.9MHz, SF9BW125, 4/5CR
2025-10-28 02:57:37 8.5625°C -4.5% 3.41V v5 52.0812 / 5.03275 25900 ttn.v3 0.669km -129 -14 867.1MHz, SF9BW125, 4/5CR
2025-10-28 01:53:34 7.875°C -2.4375% 3.42V v5 52.0812 / 5.03275 25896 ttn.v3 0.669km -130 -14.75 867.7MHz, SF9BW125, 4/5CR
2025-10-28 01:21:33 7.5°C -1.1875% 3.42V v5 52.0812 / 5.03275 25894 ttn.v3 0.669km -129 -14 867.5MHz, SF9BW125, 4/5CR
2025-10-28 00:49:31 7°C 0.5625% 3.42V v5 52.0812 / 5.03275 25892 ttn.v3 0.669km -129 -14 867.3MHz, SF9BW125, 4/5CR
2025-10-28 00:17:30 6.875°C 1.3125% 3.42V v5 52.0812 / 5.03275 25890 ttn.v3 0.669km -127 -13 867.1MHz, SF9BW125, 4/5CR
2025-10-27 23:13:28 7.5625°C -0.3125% 3.42V v5 52.0812 / 5.03275 25886 ttn.v3 0.669km -131 -14.75 867.7MHz, SF9BW125, 4/5CR
2025-10-27 22:09:25 8.4375°C -2.4375% 3.42V v5 52.0812 / 5.03275 25882 ttn.v3 0.669km -128 -12.5 867.3MHz, SF9BW125, 4/5CR
2025-10-27 21:37:23 8.8125°C -3.1875% 3.42V v5 52.0812 / 5.03275 25880 ttn.v3 0.669km -128 -12.5 867.1MHz, SF9BW125, 4/5CR
2025-10-27 20:33:18 9.125°C -2.5625% 3.41V v5 52.0812 / 5.03275 25876 ttn.v3 0.669km -129 -13.75 867.7MHz, SF9BW125, 4/5CR
2025-10-27 19:29:14 9.4375°C -2.875% 3.41V v5 52.0812 / 5.03275 25872 ttn.v3 3.471km -129 -13.25 867.3MHz, SF9BW125, 4/5CR
2025-10-27 13:36:43 10.8125°C 115.875% 3.42V v5 52.0812 / 5.03275 25850 ttn.v3 3.471km -127 -11 867.1MHz, SF9BW125, 4/5CR
2025-10-27 11:28:34 9.8125°C -5.6875% 3.41V v5 52.0812 / 5.03275 25842 ttn.v3 3.471km -128 -11.5 867.3MHz, SF9BW125, 4/5CR
2025-10-27 10:56:31 9.875°C 118.75% 3.41V v5 52.0812 / 5.03275 25840 ttn.v3 3.471km -127 -10.5 867.1MHz, SF9BW125, 4/5CR
2025-10-27 10:40:30 9.625°C -5.5625% 3.42V v5 52.0812 / 5.03275 25839 ttn.v3 3.471km -127 -12.5 868.1MHz, SF9BW125, 4/5CR
2025-10-27 09:52:27 9.375°C -2.6875% 3.42V v5 52.0812 / 5.03275 25836 ttn.v3 3.471km -128 -13.25 867.7MHz, SF9BW125, 4/5CR
2025-10-27 06:41:12 9.8125°C -2.5% 3.1V v5 52.0812 / 5.03275 25824 ttn.v3 0.669km -138 -21 868.1MHz, SF12BW125, 4/5CR
2025-10-27 04:00:08 9.75°C 116.25% 3.41V v5 52.0811 / 5.03271 25814 ttn.v3 0.667km -128 -13.25 867.3MHz, SF9BW125, 4/5CR
3.468km -130 -13.75 867.3MHz, SF9BW125, 4/5CR
2025-10-27 03:28:05 9.8125°C 116.438% 3.42V v5 52.0811 / 5.03271 25812 ttn.v3 0.667km -129 -14 867.1MHz, SF9BW125, 4/5CR
2025-10-27 02:24:01 9.375°C 117.438% 3.41V v5 52.0811 / 5.03271 25808 ttn.v3 3.468km -130 -14 867.7MHz, SF9BW125, 4/5CR
2025-10-27 01:19:57 8.4375°C -5.875% 3.42V v5 52.0811 / 5.03271 25804 ttn.v3 3.468km -129 -13.25 867.3MHz, SF9BW125, 4/5CR
2025-10-27 01:03:56 8.3125°C -5.5% 3.41V v5 52.0811 / 5.03271 25803 ttn.v3 0.667km -134 -16.25 868.1MHz, SF9BW125, 4/5CR
2025-10-27 00:48:02 8.1875°C -5.4375% 3.42V v5 52.0811 / 5.03271 25802 ttn.v3 3.468km -130 -13.75 867.1MHz, SF9BW125, 4/5CR
2025-10-26 22:39:49 8.25°C -3.6875% 3.42V v5 52.0811 / 5.03271 25794 ttn.v3 3.468km -128 -12.75 868.1MHz, SF9BW125, 4/5CR
2025-10-26 20:15:42 8.5°C 7.875% 3.42V v5 52.0811 / 5.03271 25785 ttn.v3 0.667km -129 -14.5 867.3MHz, SF9BW125, 4/5CR
2025-10-26 19:11:38 9°C 23.75% 3.41V v5 52.0811 / 5.03271 25781 ttn.v3 3.468km -128 -11.25 867.9MHz, SF9BW125, 4/5CR
2025-10-26 14:39:18 11.25°C 15.3125% 3.41V v5 52.0811 / 5.03271 25764 ttn.v3 3.468km -130 -14.5 868.1MHz, SF9BW125, 4/5CR
2025-10-26 11:43:05 9.4375°C -5.75% 3.42V v5 52.0811 / 5.03271 25753 ttn.v3 3.468km -128 -13 867.1MHz, SF9BW125, 4/5CR
2025-10-26 08:30:54 8.1875°C -4.1875% 3.41V v5 52.0811 / 5.03271 25741 ttn.v3 3.468km -131 -14.75 867.9MHz, SF9BW125, 4/5CR
2025-10-26 06:54:49 7.9375°C -1.75% 3.42V v5 52.0811 / 5.03271 25735 ttn.v3 3.468km -130 -13.75 867.3MHz, SF9BW125, 4/5CR
2025-10-26 05:04:12 7.125°C 6.3125% 3.02V v5 52.0811 / 5.03271 25728 ttn.v3 3.468km -128 -12.5 867.7MHz, SF12BW125, 4/5CR
2025-10-26 04:46:52 7°C 5.875% 3.42V v5 52.0811 / 5.03287 25727 ttn.v3 0.678km -132 -15.75 868.5MHz, SF9BW125, 4/5CR
2025-10-26 04:30:51 6.8125°C 6.1875% 3.42V v5 52.0811 / 5.03287 25726 ttn.v3 0.678km -130 -14.75 867.5MHz, SF9BW125, 4/5CR
2025-10-26 03:26:49 6.75°C 2.875% 3.42V v5 52.0811 / 5.03287 25722 ttn.v3 0.678km -130 -15.25 867.1MHz, SF9BW125, 4/5CR
2025-10-26 01:46:44 7.5°C 7.25% 3.42V v5 52.0811 / 5.03287 25712 ttn.v3 0.678km -128 -12.75 867.1MHz, SF9BW125, 4/5CR
2025-10-25 23:06:36 8.5625°C 4.8125% 3.41V v5 52.0811 / 5.03287 25702 ttn.v3 0.678km -127 -12 867.1MHz, SF9BW125, 4/5CR
2025-10-25 22:02:33 8.5°C 6% 3.42V v5 52.0811 / 5.03287 25698 ttn.v3 0.678km -130 -14.25 867.7MHz, SF9BW125, 4/5CR
2025-10-25 21:30:31 8.5°C 5.75% 3.41V v5 52.0811 / 5.03287 25696 ttn.v3 0.678km -129 -13.75 867.5MHz, SF9BW125, 4/5CR
2025-10-25 20:58:29 8.625°C 6.375% 3.42V v5 52.0811 / 5.03287 25694 ttn.v3 0.678km -128 -13.25 867.3MHz, SF9BW125, 4/5CR
2025-10-25 16:10:07 11.75°C -2.9375% 3.42V v5 52.0811 / 5.03287 25676 ttn.v3 0.678km -130 -14.75 867.3MHz, SF9BW125, 4/5CR
2025-10-25 15:38:04 11.6875°C 118.062% 3.42V v5 52.0811 / 5.03287 25674 ttn.v3 3.458km -130 -13 867.1MHz, SF9BW125, 4/5CR
2025-10-25 12:41:46 11.4375°C 113.812% 3.42V v5 52.0811 / 5.03287 25663 ttn.v3 3.458km -129 -12.5 867.9MHz, SF9BW125, 4/5CR
2025-10-25 02:49:12 8.4375°C -1.375% 3.41V v5 52.0811 / 5.03275 25626 ttn.v3 3.466km -127 -11.75 868.1MHz, SF9BW125, 4/5CR
2025-10-24 16:56:30 11.75°C 26.125% 3.42V v5 52.0811 / 5.03275 25589 ttn.v3 3.466km -129 -14.5 867.1MHz, SF9BW125, 4/5CR
2025-10-24 10:31:49 9.6875°C 6.0625% 3.42V v5 52.0811 / 5.03275 25565 ttn.v3 3.466km -130 -14.25 867.7MHz, SF9BW125, 4/5CR
2025-10-24 08:55:42 9.3125°C 8.25% 3.42V v5 52.0811 / 5.03275 25559 ttn.v3 3.466km -125 -9.75 867.1MHz, SF9BW125, 4/5CR
2025-10-24 07:51:38 9.375°C 7.0625% 3.42V v5 52.0811 / 5.03275 25555 ttn.v3 3.466km -127 -10.75 867.7MHz, SF9BW125, 4/5CR
2025-10-24 05:43:29 9.625°C 8.3125% 3.42V v5 52.0811 / 5.03275 25547 ttn.v3 3.466km -129 -12.25 867.9MHz, SF9BW125, 4/5CR
2025-10-24 04:07:22 9.8125°C 1.1875% 3.42V v5 52.0811 / 5.03275 25541 ttn.v3 3.466km -128 -11.75 867.3MHz, SF9BW125, 4/5CR
2025-10-24 03:03:17 9.8125°C -4.8125% 3.42V v5 52.0811 / 5.03275 25537 ttn.v3 3.466km -129 -13 867.9MHz, SF9BW125, 4/5CR
2025-10-24 02:48:06 9.8125°C -5.125% 3.22V v5 52.0811 / 5.03275 25536 ttn.v3 3.466km -131 -15.5 868.1MHz, SF12BW125, 4/5CR
2025-10-24 00:55:10 10.0625°C 117% 3.42V v5 52.0811 / 5.03281 25529 ttn.v3 0.674km -129 -15.25 867.1MHz, SF9BW125, 4/5CR
2025-10-24 00:23:08 10.0625°C 117.375% 3.42V v5 52.0811 / 5.03281 25527 ttn.v3 3.462km -130 -14.5 867.9MHz, SF9BW125, 4/5CR
2025-10-23 23:03:01 10.25°C 117.062% 3.42V v5 52.0811 / 5.03281 25522 ttn.v3 0.674km -131 -15.5 868.5MHz, SF9BW125, 4/5CR
2025-10-23 19:50:44 10.875°C 115.688% 3.42V v5 52.0811 / 5.03281 25510 ttn.v3 3.462km -128 -10.5 867.1MHz, SF9BW125, 4/5CR
2025-10-23 17:58:34 11.4375°C 114.812% 3.41V v5 52.0811 / 5.03281 25503 ttn.v3 0.674km -127 -13.25 867.3MHz, SF9BW125, 4/5CR
2025-10-23 12:22:00 12.75°C 26.3125% 3.42V v5 52.0811 / 5.03281 25482 ttn.v3 3.462km -130 -12.5 867.1MHz, SF9BW125, 4/5CR
2025-10-23 03:32:52 11.9375°C 115.625% 3.42V v5 52.0811 / 5.03281 25449 ttn.v3 3.462km -127 -14 867.7MHz, SF9BW125, 4/5CR
2025-10-23 01:56:41 12.25°C 116.938% 3.42V v5 52.0811 / 5.03281 25443 ttn.v3 3.462km -128 -12.25 867.1MHz, SF9BW125, 4/5CR
2025-10-23 01:24:37 12.3125°C 117% 3.41V v5 52.0811 / 5.03281 25441 ttn.v3 0.674km -130 -13.25 868.1MHz, SF9BW125, 4/5CR
2025-10-23 01:10:00 12.25°C 117.5% 3.17V v5 52.0811 / 5.03281 25440 ttn.v3 3.462km -130 -14.5 867.9MHz, SF12BW125, 4/5CR
0.674km -132 -17 867.9MHz, SF12BW125, 4/5CR
2025-10-23 00:36:37 12.3125°C 117.125% 3.42V v5 52.0812 / 5.03275 25438 ttn.v3 0.669km -130 -15 867.7MHz, SF9BW125, 4/5CR
2025-10-22 21:56:17 12.8125°C 118.938% 3.42V v5 52.0812 / 5.03275 25428 ttn.v3 0.669km -129 -14 867.7MHz, SF9BW125, 4/5CR
2025-10-22 19:15:56 14.1875°C -1.3125% 3.41V v5 52.0812 / 5.03275 25418 ttn.v3 0.669km -129 -14 867.7MHz, SF9BW125, 4/5CR
2025-10-22 18:11:46 14.9375°C 1.3125% 3.41V v5 52.0812 / 5.03275 25414 ttn.v3 0.669km -128 -15.75 867.3MHz, SF9BW125, 4/5CR
2025-10-22 16:35:30 15.5625°C -0.125% 3.41V v5 52.0812 / 5.03275 25408 ttn.v3 0.669km -128 -13.75 867.7MHz, SF9BW125, 4/5CR
2025-10-22 14:27:07 15.3125°C 116.062% 3.42V v5 52.0812 / 5.03275 25400 ttn.v3 0.669km -129 -13.25 867.9MHz, SF9BW125, 4/5CR
2025-10-22 09:54:30 12°C 113.938% 3.42V v5 52.0812 / 5.03275 25383 ttn.v3 0.669km -131 -15.75 868.3MHz, SF9BW125, 4/5CR
2025-10-22 06:42:09 12.5625°C 113.188% 3.42V v5 52.0812 / 5.03275 25371 ttn.v3 0.669km -129 -13.5 867.7MHz, SF9BW125, 4/5CR
2025-10-21 16:48:25 15.0625°C -3.5625% 3.42V v5 52.0812 / 5.03275 25319 ttn.v3 3.471km -128 -11.5 867.1MHz, SF9BW125, 4/5CR
2025-10-21 11:59:37 13.625°C 111.812% 3.42V v5 52.0812 / 5.03275 25301 ttn.v3 3.471km -129 -13.5 867.3MHz, SF9BW125, 4/5CR
2025-10-21 11:27:33 13.5°C 112.125% 3.41V v5 52.0812 / 5.03275 25299 ttn.v3 3.471km -131 -15.5 867.1MHz, SF9BW125, 4/5CR
2025-10-21 10:23:24 13.375°C 112.625% 3.42V v5 52.0812 / 5.03275 25295 ttn.v3 3.471km -129 -12.5 867.7MHz, SF9BW125, 4/5CR
2025-10-21 09:03:13 13.125°C 112.938% 3.42V v5 52.0812 / 5.03275 25290 ttn.v3 3.471km -128 -14.5 868.1MHz, SF9BW125, 4/5CR
2025-10-21 06:38:54 13.0625°C 113.188% 3.42V v5 52.0812 / 5.03275 25281 ttn.v3 0.669km -129 -14.5 867.3MHz, SF9BW125, 4/5CR
2025-10-21 02:22:19 13.5625°C 114.562% 3.42V v5 52.0812 / 5.03275 25265 ttn.v3 0.669km -131 -15.5 867.7MHz, SF9BW125, 4/5CR
2025-10-20 21:51:11 14.4375°C 115.625% 3.31V v5 52.0812 / 5.03275 25248 ttn.v3 0.669km -126 -13 867.1MHz, SF12BW125, 4/5CR
- -115 -18.5 867.1MHz, SF12BW125, 4/5CR
3.471km -137 -20.5 867.1MHz, SF12BW125, 4/5CR
2025-10-20 20:45:34 14.75°C 115.375% 3.41V v5 52.0812 / 5.03275 25244 ttn.v3 0.669km -129 -14 867.7MHz, SF9BW125, 4/5CR
2025-10-20 14:52:32 16.5°C 117.125% 3.42V v5 52.0812 / 5.03275 25222 ttn.v3 0.669km -131 -14.75 868.5MHz, SF9BW125, 4/5CR
2025-10-20 14:36:29 16.4375°C 116.25% 3.41V v5 52.0812 / 5.03275 25221 ttn.v3 0.669km -129 -14.25 867.1MHz, SF9BW125, 4/5CR
2025-10-20 06:35:11 13.1875°C 115.062% 3.41V v5 52.0812 / 5.03275 25191 ttn.v3 3.471km -128 -10.75 867.1MHz, SF9BW125, 4/5CR
2025-10-20 05:47:05 12.8125°C 116.688% 3.42V v5 52.0812 / 5.03275 25188 ttn.v3 0.669km -129 -13.5 868.1MHz, SF9BW125, 4/5CR
2025-10-20 05:31:03 12.8125°C 116.938% 3.42V v5 52.0812 / 5.03275 25187 ttn.v3 0.669km -126 -12.25 867.7MHz, SF9BW125, 4/5CR
2025-10-20 04:58:59 12.8125°C 118.125% 3.41V v5 52.0812 / 5.03275 25185 ttn.v3 0.669km -128 -14.5 867.5MHz, SF9BW125, 4/5CR
2025-10-20 04:10:53 12.875°C -5.25% 3.42V v5 52.0812 / 5.03275 25182 ttn.v3 0.669km -130 -14 868.1MHz, SF9BW125, 4/5CR
2025-10-20 03:38:49 12.8125°C -4.125% 3.42V v5 52.0812 / 5.03275 25180 ttn.v3 0.669km -132 -15 868.5MHz, SF9BW125, 4/5CR
2025-10-20 03:22:47 12.875°C -3.75% 3.41V v5 52.0812 / 5.03275 25179 ttn.v3 3.471km -130 -13 867.9MHz, SF9BW125, 4/5CR
2025-10-20 02:34:40 13.0625°C -1.875% 3.42V v5 52.0812 / 5.03275 25176 ttn.v3 0.669km -129 -13.25 868.1MHz, SF9BW125, 4/5CR
2025-10-20 02:18:38 13.125°C -1.625% 3.42V v5 52.0812 / 5.03275 25175 ttn.v3 0.669km -124 -9.25 867.5MHz, SF9BW125, 4/5CR
2025-10-20 00:26:23 12.875°C -3.6875% 3.42V v5 52.0812 / 5.03275 25168 ttn.v3 0.669km -129 -13.25 868.5MHz, SF9BW125, 4/5CR
2025-10-19 23:22:15 13°C -2.75% 3.42V v5 52.0812 / 5.03275 25164 ttn.v3 0.669km -129 -13 868.1MHz, SF9BW125, 4/5CR
2025-10-19 21:46:02 13.0625°C 0.625% 3.42V v5 52.0812 / 5.03275 25158 ttn.v3 0.669km -128 -12.25 868.1MHz, SF9BW125, 4/5CR
2025-10-19 21:30:00 13.0625°C 2.375% 3.42V v5 52.0812 / 5.03275 25157 ttn.v3 0.669km -127 -13 867.7MHz, SF9BW125, 4/5CR
2025-10-19 21:13:58 13°C 4.375% 3.41V v5 52.0812 / 5.03275 25156 ttn.v3 0.669km -127 -10.25 868.5MHz, SF9BW125, 4/5CR
2025-10-19 20:57:56 12.9375°C 7.125% 3.42V v5 52.0812 / 5.03275 25155 ttn.v3 0.669km -127 -14.25 867.5MHz, SF9BW125, 4/5CR
2025-10-19 20:25:52 12.875°C 12.25% 3.42V v5 52.0812 / 5.03275 25153 ttn.v3 0.669km -125 -11.5 867.3MHz, SF9BW125, 4/5CR
2025-10-19 20:11:33 12.875°C 14.9375% 3.36V v5 52.0812 / 5.03275 25152 ttn.v3 0.669km -129 -13.75 868.1MHz, SF12BW125, 4/5CR
2025-10-19 16:09:21 14.75°C 45.3125% 3.42V v5 No position 25137 ttn.v3 - -127 -12.75 867.7MHz, SF9BW125, 4/5CR
2025-10-19 14:01:01 13.5625°C 33.6875% 3.42V v5 No position 25129 ttn.v3 - -126 -10.5 867.9MHz, SF9BW125, 4/5CR
2025-10-19 12:24:50 11.125°C 21.3125% 3.42V v5 No position 25123 ttn.v3 - -128 -15 867.3MHz, SF9BW125, 4/5CR
2025-10-19 11:36:46 10.0625°C 20.25% 3.42V v5 No position 25120 ttn.v3 - -127 -11.5 868.5MHz, SF9BW125, 4/5CR
2025-10-19 11:20:44 9.8125°C 19.9375% 3.42V v5 No position 25119 ttn.v3 - -125 -10.75 867.9MHz, SF9BW125, 4/5CR
- -129 -13.25 867.9MHz, SF9BW125, 4/5CR
2025-10-19 10:32:41 9.0625°C 20.1875% 3.42V v5 No position 25116 ttn.v3 - -125 -10.25 868.1MHz, SF9BW125, 4/5CR
2025-10-19 09:44:38 8.625°C 19.875% 3.42V v5 No position 25113 ttn.v3 - -125 -11 867.3MHz, SF9BW125, 4/5CR
2025-10-19 08:40:34 8.5°C 20% 3.42V v5 No position 25109 ttn.v3 - -125 -12.5 867.9MHz, SF9BW125, 4/5CR
- -131 -14.25 867.9MHz, SF9BW125, 4/5CR
2025-10-19 08:24:33 8.4375°C 20.5625% 3.42V v5 No position 25108 ttn.v3 - -126 -10 868.5MHz, SF9BW125, 4/5CR
2025-10-19 08:08:32 8.3125°C 21.3125% 3.42V v5 No position 25107 ttn.v3 - -125 -9.5 867.7MHz, SF9BW125, 4/5CR
2025-10-19 07:36:30 8.4375°C 21.8125% 3.42V v5 No position 25105 ttn.v3 - -122 -7.25 867.5MHz, SF9BW125, 4/5CR
2025-10-19 07:20:29 8.4375°C 22.3125% 3.42V v5 No position 25104 ttn.v3 - -126 -9.75 868.1MHz, SF9BW125, 4/5CR
2025-10-19 06:48:27 8.5625°C 22.5% 3.42V v5 No position 25102 ttn.v3 - -127 -9.25 868.5MHz, SF9BW125, 4/5CR
2025-10-19 06:32:26 8.5625°C 22.6875% 3.42V v5 No position 25101 ttn.v3 - -127 -12.75 867.1MHz, SF9BW125, 4/5CR
2025-10-19 06:16:25 8.5625°C 22.625% 3.42V v5 No position 25100 ttn.v3 - -126 -9.75 868.3MHz, SF9BW125, 4/5CR
2025-10-19 06:00:24 8.5625°C 22.8125% 3.42V v5 No position 25099 ttn.v3 - -129 -13 867.9MHz, SF9BW125, 4/5CR
2025-10-19 05:44:23 8.5625°C 23% 3.42V v5 No position 25098 ttn.v3 - -128 -11.75 868.1MHz, SF9BW125, 4/5CR
2025-10-19 05:28:22 8.5625°C 23.375% 3.42V v5 No position 25097 ttn.v3 - -123 -7.75 867.7MHz, SF9BW125, 4/5CR
2025-10-19 04:40:19 8.875°C 25.125% 3.42V v5 No position 25094 ttn.v3 - -128 -11.25 868.3MHz, SF9BW125, 4/5CR
2025-10-19 04:08:17 9.3125°C 25.5625% 3.42V v5 No position 25092 ttn.v3 - -128 -9.75 868.1MHz, SF9BW125, 4/5CR
2025-10-19 03:36:15 9.125°C 24.75% 3.42V v5 No position 25090 ttn.v3 - -127 -9.5 868.5MHz, SF9BW125, 4/5CR
2025-10-19 03:04:13 9.1875°C 25.75% 3.42V v5 No position 25088 ttn.v3 - -128 -10 868.3MHz, SF9BW125, 4/5CR
2025-10-19 02:32:10 9.125°C 26.6875% 3.42V v5 No position 25086 ttn.v3 - -127 -9.25 868.1MHz, SF9BW125, 4/5CR
2025-10-19 02:16:09 9.0625°C 27.9375% 3.42V v5 No position 25085 ttn.v3 - -127 -12.25 867.5MHz, SF9BW125, 4/5CR
2025-10-19 02:00:08 9.125°C 29.9375% 3.41V v5 No position 25084 ttn.v3 - -129 -13.25 868.5MHz, SF9BW125, 4/5CR
2025-10-19 01:44:07 9.1875°C 31.4375% 3.42V v5 No position 25083 ttn.v3 - -127 -11.5 867.3MHz, SF9BW125, 4/5CR
- -130 -14 867.3MHz, SF9BW125, 4/5CR
2025-10-19 01:28:06 9.25°C 32.875% 3.42V v5 No position 25082 ttn.v3 - -127 -13.25 868.3MHz, SF9BW125, 4/5CR
2025-10-19 00:56:03 9.5°C 36.4375% 3.42V v5 No position 25080 ttn.v3 - -124 -7.75 868.1MHz, SF9BW125, 4/5CR
2025-10-19 00:40:02 9.625°C 38.5% 3.42V v5 No position 25079 ttn.v3 - -123 -7.25 867.9MHz, SF9BW125, 4/5CR
2025-10-19 00:24:01 9.6875°C 39.625% 3.42V v5 No position 25078 ttn.v3 - -126 -9.5 868.5MHz, SF9BW125, 4/5CR
2025-10-18 23:35:57 9.75°C 44.8125% 3.42V v5 No position 25075 ttn.v3 - -124 -9.75 867.5MHz, SF9BW125, 4/5CR
2025-10-18 23:03:55 9.875°C 49.1875% 3.42V v5 No position 25073 ttn.v3 - -124 -10.5 867.3MHz, SF9BW125, 4/5CR
2025-10-18 22:47:53 10°C 50.9375% 3.42V v5 No position 25072 ttn.v3 - -129 -12.5 868.5MHz, SF9BW125, 4/5CR
2025-10-18 22:31:52 10.125°C 50.8125% 3.42V v5 No position 25071 ttn.v3 - -127 -13.25 867.1MHz, SF9BW125, 4/5CR
2025-10-18 22:15:51 10.25°C 51.125% 3.42V v5 No position 25070 ttn.v3 - -125 -9.75 868.3MHz, SF9BW125, 4/5CR
2025-10-18 21:59:49 10.4375°C 52.25% 3.42V v5 No position 25069 ttn.v3 - -127 -12.25 867.9MHz, SF9BW125, 4/5CR
2025-10-18 21:43:48 10.5625°C 53.875% 3.42V v5 No position 25068 ttn.v3 - -126 -10 868.1MHz, SF9BW125, 4/5CR
- -128 -14 868.1MHz, SF9BW125, 4/5CR
2025-10-18 21:27:46 10.75°C 55.1875% 3.42V v5 No position 25067 ttn.v3 - -124 -9.75 867.7MHz, SF9BW125, 4/5CR
2025-10-18 20:23:40 11.4375°C 57.125% 3.42V v5 No position 25063 ttn.v3 - -124 -11 867.3MHz, SF9BW125, 4/5CR
2025-10-18 20:07:38 11.5°C 59.375% 3.41V v5 No position 25062 ttn.v3 - -125 -11 868.1MHz, SF9BW125, 4/5CR
2025-10-18 19:35:34 11.875°C 62.125% 3.42V v5 No position 25060 ttn.v3 - -127 -11.75 868.5MHz, SF9BW125, 4/5CR
2025-10-18 19:19:33 12.0625°C 66.9375% 3.42V v5 No position 25059 ttn.v3 - -124 -12.75 867.9MHz, SF9BW125, 4/5CR
2025-10-18 19:03:31 12.375°C 70% 3.41V v5 No position 25058 ttn.v3 - -126 -10.75 868.3MHz, SF9BW125, 4/5CR
2025-10-18 18:47:29 12.625°C 73.1875% 3.41V v5 No position 25057 ttn.v3 - -124 -9.75 867.7MHz, SF9BW125, 4/5CR
2025-10-18 18:33:36 12.875°C 76.9375% 3.41V v5 No position 25056 ttn.v3 - -127 -12 868.1MHz, SF12BW125, 4/5CR
- -133 -19.75 868.1MHz, SF12BW125, 4/5CR
2025-10-18 17:59:31 13.3125°C 82.875% 3.42V v5 52.0812 / 5.03271 25054 ttn.v3 0.667km -126 -13.25 868.5MHz, SF9BW125, 4/5CR
2025-10-18 17:11:24 14.0625°C 89.4375% 3.42V v5 52.0812 / 5.03271 25051 ttn.v3 3.473km -131 -13.75 867.1MHz, SF9BW125, 4/5CR
2025-10-18 16:39:19 14.625°C 92.1875% 3.41V v5 52.0812 / 5.03271 25049 ttn.v3 0.667km -126 -13 867.9MHz, SF9BW125, 4/5CR
2025-10-18 16:07:13 15.375°C 93.0625% 3.42V v5 52.0812 / 5.03271 25047 ttn.v3 0.667km -126 -13.5 867.7MHz, SF9BW125, 4/5CR
2025-10-18 15:51:11 15.6875°C 92.4375% 3.42V v5 52.0812 / 5.03271 25046 ttn.v3 0.667km -127 -13 868.3MHz, SF9BW125, 4/5CR
2025-10-18 14:14:52 16.0625°C 87.8125% 3.41V v5 52.0812 / 5.03271 25040 ttn.v3 0.667km -127 -10.5 868.3MHz, SF9BW125, 4/5CR
2025-10-18 13:58:50 15.6875°C 85.25% 3.42V v5 52.0812 / 5.03271 25039 ttn.v3 3.473km -130 -13.5 867.9MHz, SF9BW125, 4/5CR
0.667km -128 -13.75 867.9MHz, SF9BW125, 4/5CR
2025-10-18 13:26:44 15°C 76.875% 3.42V v5 52.0812 / 5.03271 25037 ttn.v3 0.667km -126 -11.25 867.7MHz, SF9BW125, 4/5CR
2025-10-18 13:10:42 14.875°C 69.4375% 3.42V v5 52.0812 / 5.03271 25036 ttn.v3 0.667km -129 -11.75 868.5MHz, SF9BW125, 4/5CR
2025-10-18 12:38:37 13.9375°C 56.9375% 3.42V v5 52.0812 / 5.03271 25034 ttn.v3 0.667km -126 -9.75 868.3MHz, SF9BW125, 4/5CR
2025-10-18 12:22:35 13.375°C 38.4375% 3.41V v5 52.0812 / 5.03271 25033 ttn.v3 0.667km -130 -15.75 867.3MHz, SF9BW125, 4/5CR
2025-10-18 12:06:32 12.875°C 24.25% 3.42V v5 52.0812 / 5.03271 25032 ttn.v3 0.667km -128 -11.5 868.1MHz, SF9BW125, 4/5CR
3.473km -128 -14.5 868.1MHz, SF9BW125, 4/5CR
2025-10-18 11:50:31 12.5°C 18.6875% 3.42V v5 52.0812 / 5.03271 25031 ttn.v3 0.667km -126 -11.5 867.1MHz, SF9BW125, 4/5CR
2025-10-18 11:34:29 12.1875°C 14.1875% 3.42V v5 52.0812 / 5.03271 25030 ttn.v3 0.667km -130 -13.25 868.5MHz, SF9BW125, 4/5CR
2025-10-18 11:18:27 11.875°C 11.375% 3.42V v5 52.0812 / 5.03271 25029 ttn.v3 0.667km -125 -13.25 867.9MHz, SF9BW125, 4/5CR
2025-10-18 10:30:22 11.6875°C 8.8125% 3.42V v5 52.0812 / 5.03271 25026 ttn.v3 0.667km -128 -12.5 868.1MHz, SF9BW125, 4/5CR
3.473km -129 -14 868.1MHz, SF9BW125, 4/5CR
2025-10-18 09:42:17 11.375°C 4.6875% 3.42V v5 52.0812 / 5.03271 25023 ttn.v3 0.667km -124 -10 867.3MHz, SF9BW125, 4/5CR
2025-10-18 09:10:14 11.1875°C 5.5% 3.42V v5 52.0812 / 5.03271 25021 ttn.v3 0.667km -127 -13 867.1MHz, SF9BW125, 4/5CR
2025-10-18 08:54:12 11.1875°C 5.4375% 3.42V v5 52.0812 / 5.03271 25020 ttn.v3 0.667km -129 -12.75 868.1MHz, SF9BW125, 4/5CR
2025-10-18 08:22:09 11.125°C 5.5% 3.42V v5 52.0812 / 5.03271 25018 ttn.v3 0.667km -127 -12.25 868.5MHz, SF9BW125, 4/5CR
2025-10-18 07:50:06 11.25°C 3.875% 3.42V v5 52.0812 / 5.03271 25016 ttn.v3 0.667km -127 -10.75 868.3MHz, SF9BW125, 4/5CR
2025-10-18 07:34:04 11.3125°C 2.75% 3.42V v5 52.0812 / 5.03271 25015 ttn.v3 0.667km -125 -11 867.5MHz, SF9BW125, 4/5CR
2025-10-18 07:02:01 11.5°C 1% 3.42V v5 52.0812 / 5.03271 25013 ttn.v3 0.667km -126 -11.75 867.3MHz, SF9BW125, 4/5CR
2025-10-18 06:29:58 11.75°C -0.5% 3.42V v5 52.0812 / 5.03271 25011 ttn.v3 3.473km -132 -15 867.1MHz, SF9BW125, 4/5CR
2025-10-18 06:13:56 11.8125°C -1.5% 3.41V v5 52.0812 / 5.03271 25010 ttn.v3 0.667km -128 -11.25 868.3MHz, SF9BW125, 4/5CR
2025-10-18 05:57:54 11.8125°C -1.8125% 3.42V v5 52.0812 / 5.03271 25009 ttn.v3 0.667km -127 -11.75 867.9MHz, SF9BW125, 4/5CR
2025-10-18 05:25:51 11.8125°C -2.25% 3.42V v5 52.0812 / 5.03271 25007 ttn.v3 0.667km -125 -10.5 867.7MHz, SF9BW125, 4/5CR
2025-10-18 04:53:47 11.75°C -2.1875% 3.42V v5 52.0812 / 5.03271 25005 ttn.v3 0.667km -126 -12 867.5MHz, SF9BW125, 4/5CR
2025-10-18 04:21:44 11.9375°C -2.6875% 3.42V v5 52.0812 / 5.03271 25003 ttn.v3 0.667km -125 -11.75 867.3MHz, SF9BW125, 4/5CR
2025-10-18 03:49:40 11.9375°C -2.875% 3.42V v5 52.0812 / 5.03271 25001 ttn.v3 0.667km -129 -15 867.1MHz, SF9BW125, 4/5CR
2025-10-18 03:01:35 11.875°C -2.0625% 3.42V v5 52.0812 / 5.03271 24998 ttn.v3 0.667km -129 -14 868.3MHz, SF9BW125, 4/5CR
2025-10-18 02:45:33 11.875°C -1.6875% 3.42V v5 52.0812 / 5.03271 24997 ttn.v3 0.667km -124 -11 867.7MHz, SF9BW125, 4/5CR
2025-10-18 02:29:31 12°C -1.375% 3.42V v5 52.0812 / 5.03271 24996 ttn.v3 0.667km -128 -10.5 868.1MHz, SF9BW125, 4/5CR
2025-10-18 02:13:29 12.125°C -1.4375% 3.41V v5 52.0812 / 5.03271 24995 ttn.v3 0.667km -125 -10.5 867.5MHz, SF9BW125, 4/5CR
2025-10-18 01:57:27 12.25°C -1.8125% 3.42V v5 52.0812 / 5.03271 24994 ttn.v3 0.667km -130 -13.75 868.5MHz, SF9BW125, 4/5CR
2025-10-18 01:41:25 12.3125°C -1.8125% 3.42V v5 52.0812 / 5.03271 24993 ttn.v3 0.667km -124 -10.5 867.3MHz, SF9BW125, 4/5CR
2025-10-18 01:09:22 12.4375°C -1.875% 3.42V v5 52.0812 / 5.03271 24991 ttn.v3 0.667km -127 -13 867.1MHz, SF9BW125, 4/5CR
2025-10-18 00:53:20 12.5625°C -2.1875% 3.42V v5 52.0812 / 5.03271 24990 ttn.v3 0.667km -127 -11 868.1MHz, SF9BW125, 4/5CR
2025-10-18 00:37:18 12.5625°C -2.1875% 3.41V v5 52.0812 / 5.03271 24989 ttn.v3 0.667km -126 -10.5 867.9MHz, SF9BW125, 4/5CR
2025-10-18 00:21:16 12.5625°C -2% 3.42V v5 52.0812 / 5.03271 24988 ttn.v3 0.667km -131 -13.75 868.5MHz, SF9BW125, 4/5CR
2025-10-18 00:05:14 12.625°C -1.875% 3.42V v5 52.0812 / 5.03271 24987 ttn.v3 0.667km -125 -10.25 867.7MHz, SF9BW125, 4/5CR
2025-10-17 23:49:12 12.625°C -1.6875% 3.42V v5 52.0812 / 5.03271 24986 ttn.v3 0.667km -130 -14 868.3MHz, SF9BW125, 4/5CR
2025-10-17 23:33:10 12.625°C -1.5625% 3.42V v5 52.0812 / 5.03271 24985 ttn.v3 0.667km -125 -11 867.5MHz, SF9BW125, 4/5CR
2025-10-17 23:17:08 12.625°C -1.3125% 3.41V v5 52.0812 / 5.03271 24984 ttn.v3 0.667km -126 -9.25 868.1MHz, SF9BW125, 4/5CR
2025-10-17 23:01:06 12.6875°C -1.125% 3.41V v5 52.0812 / 5.03271 24983 ttn.v3 0.667km -123 -13 867.3MHz, SF9BW125, 4/5CR

Message count: 200
Node count: 1

Messages per node

Number of messages in list aboveNodes
200

Statistics per gateway

GatewayNumber of messagesNumber of nodesNodes
1461 (0.667km)
651 (3.473km)
11

Filter by dataset